sensor_id;sensor_type;location;lat;lon;timestamp;P1;durP1;ratioP1;P2;durP2;ratioP2
20729;SDS011;10526;50.850;12.928;2022-12-20T00:00:57;21.92;;;8.88;;
20729;SDS011;10526;50.850;12.928;2022-12-20T00:05:27;22.35;;;8.45;;
20729;SDS011;10526;50.850;12.928;2022-12-20T00:10:08;20.55;;;8.40;;
20729;SDS011;10526;50.850;12.928;2022-12-20T00:14:35;19.27;;;8.43;;
20729;SDS011;10526;50.850;12.928;2022-12-20T00:18:58;20.88;;;8.43;;
20729;SDS011;10526;50.850;12.928;2022-12-20T00:23:25;18.58;;;8.25;;
20729;SDS011;10526;50.850;12.928;2022-12-20T00:27:50;22.65;;;9.88;;
20729;SDS011;10526;50.850;12.928;2022-12-20T00:32:14;22.92;;;10.02;;
20729;SDS011;10526;50.850;12.928;2022-12-20T00:36:35;17.42;;;8.63;;
20729;SDS011;10526;50.850;12.928;2022-12-20T00:41:02;22.20;;;10.27;;
20729;SDS011;10526;50.850;12.928;2022-12-20T00:45:30;23.35;;;9.55;;
20729;SDS011;10526;50.850;12.928;2022-12-20T00:49:52;20.88;;;8.80;;
20729;SDS011;10526;50.850;12.928;2022-12-20T00:54:15;19.77;;;8.63;;
20729;SDS011;10526;50.850;12.928;2022-12-20T00:58:38;19.13;;;8.75;;
20729;SDS011;10526;50.850;12.928;2022-12-20T01:03:02;24.05;;;9.80;;
20729;SDS011;10526;50.850;12.928;2022-12-20T01:07:27;21.85;;;10.05;;
20729;SDS011;10526;50.850;12.928;2022-12-20T01:11:50;22.70;;;10.10;;
20729;SDS011;10526;50.850;12.928;2022-12-20T01:16:23;22.48;;;8.90;;
20729;SDS011;10526;50.850;12.928;2022-12-20T01:20:59;19.42;;;9.32;;
20729;SDS011;10526;50.850;12.928;2022-12-20T01:25:27;22.15;;;9.63;;
20729;SDS011;10526;50.850;12.928;2022-12-20T01:29:50;23.67;;;10.38;;
20729;SDS011;10526;50.850;12.928;2022-12-20T01:34:17;22.20;;;9.15;;
20729;SDS011;10526;50.850;12.928;2022-12-20T01:38:42;20.08;;;8.23;;
20729;SDS011;10526;50.850;12.928;2022-12-20T01:43:04;21.27;;;9.48;;
20729;SDS011;10526;50.850;12.928;2022-12-20T01:47:27;19.05;;;8.20;;
20729;SDS011;10526;50.850;12.928;2022-12-20T01:56:18;21.67;;;9.60;;
20729;SDS011;10526;50.850;12.928;2022-12-20T02:00:49;22.80;;;9.57;;
20729;SDS011;10526;50.850;12.928;2022-12-20T02:05:12;22.33;;;10.15;;
20729;SDS011;10526;50.850;12.928;2022-12-20T02:29:39;25.60;;;10.60;;
20729;SDS011;10526;50.850;12.928;2022-12-20T02:34:55;23.27;;;10.75;;
20729;SDS011;10526;50.850;12.928;2022-12-20T02:39:18;22.33;;;10.93;;
20729;SDS011;10526;50.850;12.928;2022-12-20T02:43:43;27.27;;;11.48;;
20729;SDS011;10526;50.850;12.928;2022-12-20T02:48:32;26.08;;;11.75;;
20729;SDS011;10526;50.850;12.928;2022-12-20T02:52:57;23.77;;;11.63;;
20729;SDS011;10526;50.850;12.928;2022-12-20T02:57:28;24.55;;;10.73;;
20729;SDS011;10526;50.850;12.928;2022-12-20T03:02:03;28.52;;;11.70;;
20729;SDS011;10526;50.850;12.928;2022-12-20T03:06:27;30.67;;;13.38;;
20729;SDS011;10526;50.850;12.928;2022-12-20T03:10:56;28.38;;;12.30;;
20729;SDS011;10526;50.850;12.928;2022-12-20T03:15:18;36.58;;;12.45;;
20729;SDS011;10526;50.850;12.928;2022-12-20T03:20:00;28.35;;;12.45;;
20729;SDS011;10526;50.850;12.928;2022-12-20T03:24:30;26.15;;;11.85;;
20729;SDS011;10526;50.850;12.928;2022-12-20T03:29:00;27.60;;;12.57;;
20729;SDS011;10526;50.850;12.928;2022-12-20T03:33:23;27.23;;;11.85;;
20729;SDS011;10526;50.850;12.928;2022-12-20T03:37:45;25.42;;;12.13;;
20729;SDS011;10526;50.850;12.928;2022-12-20T03:42:07;25.92;;;12.35;;
20729;SDS011;10526;50.850;12.928;2022-12-20T03:46:29;25.58;;;12.50;;
20729;SDS011;10526;50.850;12.928;2022-12-20T03:50:52;27.83;;;12.32;;
20729;SDS011;10526;50.850;12.928;2022-12-20T03:55:14;25.17;;;12.23;;
20729;SDS011;10526;50.850;12.928;2022-12-20T03:59:38;29.15;;;13.13;;
20729;SDS011;10526;50.850;12.928;2022-12-20T04:04:02;26.63;;;12.55;;
20729;SDS011;10526;50.850;12.928;2022-12-20T04:08:25;27.80;;;12.57;;
20729;SDS011;10526;50.850;12.928;2022-12-20T04:12:47;25.75;;;12.07;;
20729;SDS011;10526;50.850;12.928;2022-12-20T04:17:11;30.55;;;12.55;;
20729;SDS011;10526;50.850;12.928;2022-12-20T04:21:33;29.63;;;12.75;;
20729;SDS011;10526;50.850;12.928;2022-12-20T04:25:57;31.92;;;13.73;;
20729;SDS011;10526;50.850;12.928;2022-12-20T04:30:21;26.33;;;12.77;;
20729;SDS011;10526;50.850;12.928;2022-12-20T04:34:43;31.05;;;13.68;;
20729;SDS011;10526;50.850;12.928;2022-12-20T04:39:06;29.15;;;13.45;;
20729;SDS011;10526;50.850;12.928;2022-12-20T04:43:37;27.00;;;12.98;;
20729;SDS011;10526;50.850;12.928;2022-12-20T04:48:00;25.13;;;12.15;;
20729;SDS011;10526;50.850;12.928;2022-12-20T04:52:42;28.20;;;13.13;;
20729;SDS011;10526;50.850;12.928;2022-12-20T04:57:23;29.02;;;13.10;;
20729;SDS011;10526;50.850;12.928;2022-12-20T05:01:45;29.45;;;12.90;;
20729;SDS011;10526;50.850;12.928;2022-12-20T05:06:15;24.73;;;12.07;;
20729;SDS011;10526;50.850;12.928;2022-12-20T05:10:37;27.35;;;12.23;;
20729;SDS011;10526;50.850;12.928;2022-12-20T05:14:59;25.20;;;11.95;;
20729;SDS011;10526;50.850;12.928;2022-12-20T05:19:22;25.25;;;11.18;;
20729;SDS011;10526;50.850;12.928;2022-12-20T05:23:45;24.13;;;11.25;;
20729;SDS011;10526;50.850;12.928;2022-12-20T05:28:38;25.85;;;12.55;;
20729;SDS011;10526;50.850;12.928;2022-12-20T05:33:00;27.85;;;13.10;;
20729;SDS011;10526;50.850;12.928;2022-12-20T05:37:24;24.27;;;12.50;;
20729;SDS011;10526;50.850;12.928;2022-12-20T05:41:46;26.63;;;12.48;;
20729;SDS011;10526;50.850;12.928;2022-12-20T05:46:09;26.67;;;12.27;;
20729;SDS011;10526;50.850;12.928;2022-12-20T05:50:44;26.88;;;11.88;;
20729;SDS011;10526;50.850;12.928;2022-12-20T05:55:16;27.55;;;11.40;;
20729;SDS011;10526;50.850;12.928;2022-12-20T05:59:38;27.38;;;12.68;;
20729;SDS011;10526;50.850;12.928;2022-12-20T06:04:07;29.55;;;13.88;;
20729;SDS011;10526;50.850;12.928;2022-12-20T06:08:29;31.00;;;14.25;;
20729;SDS011;10526;50.850;12.928;2022-12-20T06:12:54;31.15;;;14.25;;
20729;SDS011;10526;50.850;12.928;2022-12-20T06:17:18;28.95;;;12.57;;
20729;SDS011;10526;50.850;12.928;2022-12-20T06:21:43;26.73;;;12.80;;
20729;SDS011;10526;50.850;12.928;2022-12-20T06:26:08;27.13;;;11.90;;
20729;SDS011;10526;50.850;12.928;2022-12-20T06:30:39;28.58;;;13.32;;
20729;SDS011;10526;50.850;12.928;2022-12-20T06:35:06;25.55;;;11.98;;
20729;SDS011;10526;50.850;12.928;2022-12-20T06:39:30;25.88;;;12.18;;
20729;SDS011;10526;50.850;12.928;2022-12-20T06:44:00;26.70;;;12.80;;
20729;SDS011;10526;50.850;12.928;2022-12-20T06:48:22;29.25;;;12.88;;
20729;SDS011;10526;50.850;12.928;2022-12-20T06:52:44;24.92;;;11.65;;
20729;SDS011;10526;50.850;12.928;2022-12-20T06:57:06;27.38;;;13.27;;
20729;SDS011;10526;50.850;12.928;2022-12-20T07:01:28;26.27;;;12.85;;
20729;SDS011;10526;50.850;12.928;2022-12-20T07:05:52;29.33;;;13.27;;
20729;SDS011;10526;50.850;12.928;2022-12-20T07:10:14;25.42;;;12.32;;
20729;SDS011;10526;50.850;12.928;2022-12-20T07:14:36;28.27;;;13.73;;
20729;SDS011;10526;50.850;12.928;2022-12-20T07:18:59;31.77;;;14.57;;
20729;SDS011;10526;50.850;12.928;2022-12-20T07:23:21;27.92;;;14.25;;
20729;SDS011;10526;50.850;12.928;2022-12-20T07:27:45;29.23;;;13.20;;
20729;SDS011;10526;50.850;12.928;2022-12-20T07:32:10;28.58;;;12.63;;
20729;SDS011;10526;50.850;12.928;2022-12-20T07:36:33;30.85;;;12.90;;
20729;SDS011;10526;50.850;12.928;2022-12-20T07:40:55;28.80;;;14.93;;
20729;SDS011;10526;50.850;12.928;2022-12-20T07:45:17;26.67;;;13.18;;
20729;SDS011;10526;50.850;12.928;2022-12-20T07:49:39;26.70;;;12.90;;
20729;SDS011;10526;50.850;12.928;2022-12-20T07:54:05;28.08;;;14.43;;
20729;SDS011;10526;50.850;12.928;2022-12-20T07:58:40;27.75;;;13.75;;
20729;SDS011;10526;50.850;12.928;2022-12-20T08:07:28;26.42;;;12.98;;
20729;SDS011;10526;50.850;12.928;2022-12-20T08:11:51;28.25;;;13.82;;
20729;SDS011;10526;50.850;12.928;2022-12-20T08:16:14;25.05;;;13.07;;
20729;SDS011;10526;50.850;12.928;2022-12-20T08:20:36;29.90;;;14.82;;
20729;SDS011;10526;50.850;12.928;2022-12-20T08:24:58;26.35;;;11.57;;
20729;SDS011;10526;50.850;12.928;2022-12-20T08:29:20;23.45;;;11.85;;
20729;SDS011;10526;50.850;12.928;2022-12-20T08:33:42;24.08;;;11.43;;
20729;SDS011;10526;50.850;12.928;2022-12-20T08:38:04;20.67;;;11.25;;
20729;SDS011;10526;50.850;12.928;2022-12-20T08:42:26;23.20;;;11.30;;
20729;SDS011;10526;50.850;12.928;2022-12-20T08:46:49;23.48;;;11.13;;
20729;SDS011;10526;50.850;12.928;2022-12-20T08:51:11;24.40;;;11.45;;
20729;SDS011;10526;50.850;12.928;2022-12-20T08:55:33;23.27;;;11.45;;
20729;SDS011;10526;50.850;12.928;2022-12-20T08:59:55;25.73;;;11.90;;
20729;SDS011;10526;50.850;12.928;2022-12-20T09:04:17;25.98;;;13.05;;
20729;SDS011;10526;50.850;12.928;2022-12-20T09:08:39;23.40;;;11.95;;
20729;SDS011;10526;50.850;12.928;2022-12-20T09:13:01;26.70;;;12.52;;
20729;SDS011;10526;50.850;12.928;2022-12-20T09:17:23;26.30;;;12.45;;
20729;SDS011;10526;50.850;12.928;2022-12-20T09:21:45;29.65;;;14.20;;
20729;SDS011;10526;50.850;12.928;2022-12-20T09:26:09;33.55;;;16.20;;
20729;SDS011;10526;50.850;12.928;2022-12-20T09:30:33;32.50;;;15.20;;
20729;SDS011;10526;50.850;12.928;2022-12-20T09:34:55;34.80;;;15.48;;
20729;SDS011;10526;50.850;12.928;2022-12-20T09:39:17;34.40;;;16.48;;
20729;SDS011;10526;50.850;12.928;2022-12-20T09:43:39;27.27;;;13.52;;
20729;SDS011;10526;50.850;12.928;2022-12-20T09:48:02;30.30;;;14.93;;
20729;SDS011;10526;50.850;12.928;2022-12-20T09:57:22;30.83;;;14.38;;
20729;SDS011;10526;50.850;12.928;2022-12-20T10:01:50;28.67;;;14.43;;
20729;SDS011;10526;50.850;12.928;2022-12-20T10:11:23;31.77;;;16.92;;
20729;SDS011;10526;50.850;12.928;2022-12-20T10:25:40;22.75;;;11.18;;
20729;SDS011;10526;50.850;12.928;2022-12-20T10:30:13;20.08;;;10.18;;
20729;SDS011;10526;50.850;12.928;2022-12-20T10:35:25;22.52;;;10.63;;
20729;SDS011;10526;50.850;12.928;2022-12-20T10:39:42;22.95;;;11.52;;
20729;SDS011;10526;50.850;12.928;2022-12-20T10:48:47;20.95;;;10.73;;
20729;SDS011;10526;50.850;12.928;2022-12-20T10:57:30;19.90;;;9.00;;
20729;SDS011;10526;50.850;12.928;2022-12-20T11:01:53;20.33;;;9.38;;
20729;SDS011;10526;50.850;12.928;2022-12-20T11:06:16;19.02;;;9.30;;
20729;SDS011;10526;50.850;12.928;2022-12-20T11:10:39;21.17;;;10.35;;
20729;SDS011;10526;50.850;12.928;2022-12-20T11:15:20;19.83;;;9.20;;
20729;SDS011;10526;50.850;12.928;2022-12-20T11:25:24;20.13;;;9.90;;
20729;SDS011;10526;50.850;12.928;2022-12-20T11:39:28;20.15;;;9.50;;
20729;SDS011;10526;50.850;12.928;2022-12-20T11:44:04;22.85;;;9.93;;
20729;SDS011;10526;50.850;12.928;2022-12-20T11:49:07;19.50;;;9.52;;
20729;SDS011;10526;50.850;12.928;2022-12-20T11:54:02;21.15;;;9.98;;
20729;SDS011;10526;50.850;12.928;2022-12-20T12:03:09;23.23;;;9.75;;
20729;SDS011;10526;50.850;12.928;2022-12-20T12:07:59;19.60;;;9.88;;
20729;SDS011;10526;50.850;12.928;2022-12-20T12:12:26;18.67;;;8.93;;
20729;SDS011;10526;50.850;12.928;2022-12-20T12:17:09;20.00;;;9.02;;
20729;SDS011;10526;50.850;12.928;2022-12-20T12:21:40;25.48;;;10.10;;
20729;SDS011;10526;50.850;12.928;2022-12-20T12:26:38;20.17;;;9.20;;
20729;SDS011;10526;50.850;12.928;2022-12-20T12:31:09;21.27;;;9.52;;
20729;SDS011;10526;50.850;12.928;2022-12-20T12:45:42;20.00;;;9.02;;
20729;SDS011;10526;50.850;12.928;2022-12-20T12:50:19;18.33;;;8.57;;
20729;SDS011;10526;50.850;12.928;2022-12-20T12:54:53;22.80;;;9.48;;
20729;SDS011;10526;50.850;12.928;2022-12-20T12:59:19;19.67;;;9.43;;
20729;SDS011;10526;50.850;12.928;2022-12-20T13:08:15;23.73;;;8.65;;
20729;SDS011;10526;50.850;12.928;2022-12-20T13:21:37;20.17;;;9.00;;
20729;SDS011;10526;50.850;12.928;2022-12-20T13:26:02;18.52;;;7.82;;
20729;SDS011;10526;50.850;12.928;2022-12-20T13:35:31;17.33;;;7.53;;
20729;SDS011;10526;50.850;12.928;2022-12-20T13:40:14;17.80;;;7.32;;
20729;SDS011;10526;50.850;12.928;2022-12-20T13:44:46;18.70;;;7.68;;
20729;SDS011;10526;50.850;12.928;2022-12-20T13:49:10;18.67;;;7.80;;
20729;SDS011;10526;50.850;12.928;2022-12-20T13:58:19;18.55;;;9.23;;
20729;SDS011;10526;50.850;12.928;2022-12-20T14:02:48;20.98;;;8.95;;
20729;SDS011;10526;50.850;12.928;2022-12-20T14:07:14;20.15;;;9.60;;
20729;SDS011;10526;50.850;12.928;2022-12-20T14:11:45;21.80;;;9.48;;
20729;SDS011;10526;50.850;12.928;2022-12-20T14:16:14;22.05;;;10.82;;
20729;SDS011;10526;50.850;12.928;2022-12-20T14:20:38;26.35;;;10.70;;
20729;SDS011;10526;50.850;12.928;2022-12-20T14:25:01;21.33;;;10.32;;
20729;SDS011;10526;50.850;12.928;2022-12-20T14:29:42;22.60;;;10.00;;
20729;SDS011;10526;50.850;12.928;2022-12-20T14:38:30;22.98;;;10.70;;
20729;SDS011;10526;50.850;12.928;2022-12-20T14:42:52;26.60;;;12.15;;
20729;SDS011;10526;50.850;12.928;2022-12-20T14:47:16;21.35;;;10.85;;
20729;SDS011;10526;50.850;12.928;2022-12-20T14:51:45;23.50;;;10.52;;
20729;SDS011;10526;50.850;12.928;2022-12-20T14:56:12;29.95;;;12.70;;
20729;SDS011;10526;50.850;12.928;2022-12-20T15:00:53;29.80;;;13.07;;
20729;SDS011;10526;50.850;12.928;2022-12-20T15:05:44;27.83;;;11.93;;
20729;SDS011;10526;50.850;12.928;2022-12-20T15:10:25;27.10;;;12.75;;
20729;SDS011;10526;50.850;12.928;2022-12-20T15:14:47;27.45;;;13.02;;
20729;SDS011;10526;50.850;12.928;2022-12-20T15:19:09;28.27;;;13.73;;
20729;SDS011;10526;50.850;12.928;2022-12-20T15:23:31;27.48;;;14.30;;
20729;SDS011;10526;50.850;12.928;2022-12-20T15:27:54;25.70;;;11.65;;
20729;SDS011;10526;50.850;12.928;2022-12-20T15:32:20;27.98;;;15.23;;
20729;SDS011;10526;50.850;12.928;2022-12-20T15:36:49;26.38;;;12.75;;
20729;SDS011;10526;50.850;12.928;2022-12-20T15:41:13;25.10;;;12.23;;
20729;SDS011;10526;50.850;12.928;2022-12-20T15:45:47;25.23;;;12.90;;
20729;SDS011;10526;50.850;12.928;2022-12-20T15:50:12;28.40;;;12.10;;
20729;SDS011;10526;50.850;12.928;2022-12-20T15:54:35;27.15;;;12.18;;
20729;SDS011;10526;50.850;12.928;2022-12-20T15:58:57;24.90;;;11.77;;
20729;SDS011;10526;50.850;12.928;2022-12-20T16:03:20;25.95;;;12.27;;
20729;SDS011;10526;50.850;12.928;2022-12-20T16:07:50;23.88;;;11.68;;
20729;SDS011;10526;50.850;12.928;2022-12-20T16:12:23;25.83;;;12.30;;
20729;SDS011;10526;50.850;12.928;2022-12-20T16:16:49;25.33;;;11.15;;
20729;SDS011;10526;50.850;12.928;2022-12-20T16:25:35;29.02;;;12.00;;
20729;SDS011;10526;50.850;12.928;2022-12-20T16:29:57;25.92;;;11.95;;
20729;SDS011;10526;50.850;12.928;2022-12-20T16:34:19;28.50;;;12.32;;
20729;SDS011;10526;50.850;12.928;2022-12-20T16:38:42;27.92;;;13.05;;
20729;SDS011;10526;50.850;12.928;2022-12-20T16:43:04;28.35;;;12.43;;
20729;SDS011;10526;50.850;12.928;2022-12-20T16:47:33;26.67;;;12.73;;
20729;SDS011;10526;50.850;12.928;2022-12-20T16:51:55;29.88;;;13.95;;
20729;SDS011;10526;50.850;12.928;2022-12-20T16:56:18;32.53;;;14.80;;
20729;SDS011;10526;50.850;12.928;2022-12-20T17:00:41;30.10;;;14.70;;
20729;SDS011;10526;50.850;12.928;2022-12-20T17:05:03;29.10;;;14.70;;
20729;SDS011;10526;50.850;12.928;2022-12-20T17:09:26;28.73;;;13.15;;
20729;SDS011;10526;50.850;12.928;2022-12-20T17:14:05;31.63;;;14.65;;
20729;SDS011;10526;50.850;12.928;2022-12-20T17:18:36;26.88;;;13.32;;
20729;SDS011;10526;50.850;12.928;2022-12-20T17:22:58;28.63;;;14.30;;
20729;SDS011;10526;50.850;12.928;2022-12-20T17:27:20;28.08;;;13.55;;
20729;SDS011;10526;50.850;12.928;2022-12-20T17:31:43;27.75;;;13.07;;
20729;SDS011;10526;50.850;12.928;2022-12-20T17:36:07;30.92;;;12.80;;
20729;SDS011;10526;50.850;12.928;2022-12-20T17:40:35;29.25;;;13.65;;
20729;SDS011;10526;50.850;12.928;2022-12-20T17:44:57;27.33;;;11.98;;
20729;SDS011;10526;50.850;12.928;2022-12-20T17:49:20;28.08;;;13.20;;
20729;SDS011;10526;50.850;12.928;2022-12-20T17:53:44;24.38;;;11.93;;
20729;SDS011;10526;50.850;12.928;2022-12-20T17:58:07;26.88;;;12.55;;
20729;SDS011;10526;50.850;12.928;2022-12-20T18:02:30;29.48;;;13.82;;
20729;SDS011;10526;50.850;12.928;2022-12-20T18:06:53;26.40;;;12.57;;
20729;SDS011;10526;50.850;12.928;2022-12-20T18:11:15;31.13;;;14.05;;
20729;SDS011;10526;50.850;12.928;2022-12-20T18:15:37;27.13;;;13.45;;
20729;SDS011;10526;50.850;12.928;2022-12-20T18:19:59;31.75;;;14.20;;
20729;SDS011;10526;50.850;12.928;2022-12-20T18:24:21;29.25;;;13.73;;
20729;SDS011;10526;50.850;12.928;2022-12-20T18:28:44;29.05;;;13.70;;
20729;SDS011;10526;50.850;12.928;2022-12-20T18:33:08;30.48;;;14.70;;
20729;SDS011;10526;50.850;12.928;2022-12-20T18:37:30;31.33;;;14.13;;
20729;SDS011;10526;50.850;12.928;2022-12-20T18:41:52;28.83;;;14.35;;
20729;SDS011;10526;50.850;12.928;2022-12-20T18:46:20;31.13;;;14.25;;
20729;SDS011;10526;50.850;12.928;2022-12-20T18:50:43;28.35;;;14.02;;
20729;SDS011;10526;50.850;12.928;2022-12-20T18:55:05;31.35;;;14.60;;
20729;SDS011;10526;50.850;12.928;2022-12-20T18:59:27;29.73;;;13.95;;
20729;SDS011;10526;50.850;12.928;2022-12-20T19:03:50;29.33;;;13.38;;
20729;SDS011;10526;50.850;12.928;2022-12-20T19:08:14;28.05;;;14.15;;
20729;SDS011;10526;50.850;12.928;2022-12-20T19:12:36;26.63;;;13.00;;
20729;SDS011;10526;50.850;12.928;2022-12-20T19:16:58;28.60;;;13.85;;
20729;SDS011;10526;50.850;12.928;2022-12-20T19:21:22;30.17;;;14.93;;
20729;SDS011;10526;50.850;12.928;2022-12-20T19:25:47;30.63;;;14.75;;
20729;SDS011;10526;50.850;12.928;2022-12-20T19:30:09;29.45;;;14.05;;
20729;SDS011;10526;50.850;12.928;2022-12-20T19:34:31;29.30;;;13.77;;
20729;SDS011;10526;50.850;12.928;2022-12-20T19:38:54;27.42;;;14.40;;
20729;SDS011;10526;50.850;12.928;2022-12-20T19:43:18;28.48;;;13.93;;
20729;SDS011;10526;50.850;12.928;2022-12-20T19:47:40;32.95;;;15.23;;
20729;SDS011;10526;50.850;12.928;2022-12-20T19:52:02;28.85;;;13.80;;
20729;SDS011;10526;50.850;12.928;2022-12-20T19:56:26;29.70;;;13.43;;
20729;SDS011;10526;50.850;12.928;2022-12-20T20:00:54;28.10;;;13.52;;
20729;SDS011;10526;50.850;12.928;2022-12-20T20:05:16;28.85;;;13.80;;
20729;SDS011;10526;50.850;12.928;2022-12-20T20:09:38;28.88;;;13.25;;
20729;SDS011;10526;50.850;12.928;2022-12-20T20:14:00;28.08;;;13.35;;
20729;SDS011;10526;50.850;12.928;2022-12-20T20:18:23;25.98;;;12.73;;
20729;SDS011;10526;50.850;12.928;2022-12-20T20:22:46;28.63;;;12.93;;
20729;SDS011;10526;50.850;12.928;2022-12-20T20:27:08;27.40;;;12.52;;
20729;SDS011;10526;50.850;12.928;2022-12-20T20:31:30;28.02;;;13.68;;
20729;SDS011;10526;50.850;12.928;2022-12-20T20:35:53;28.23;;;12.18;;
20729;SDS011;10526;50.850;12.928;2022-12-20T20:40:20;27.23;;;12.35;;
20729;SDS011;10526;50.850;12.928;2022-12-20T20:44:42;27.42;;;13.93;;
20729;SDS011;10526;50.850;12.928;2022-12-20T20:49:04;33.08;;;17.08;;
20729;SDS011;10526;50.850;12.928;2022-12-20T20:53:26;29.42;;;14.77;;
20729;SDS011;10526;50.850;12.928;2022-12-20T20:57:54;31.52;;;15.10;;
20729;SDS011;10526;50.850;12.928;2022-12-20T21:02:15;28.08;;;14.10;;
20729;SDS011;10526;50.850;12.928;2022-12-20T21:06:41;27.40;;;13.40;;
20729;SDS011;10526;50.850;12.928;2022-12-20T21:11:05;29.30;;;12.50;;
20729;SDS011;10526;50.850;12.928;2022-12-20T21:15:28;27.27;;;13.20;;
20729;SDS011;10526;50.850;12.928;2022-12-20T21:19:50;27.98;;;14.20;;
20729;SDS011;10526;50.850;12.928;2022-12-20T21:24:12;29.20;;;13.30;;
20729;SDS011;10526;50.850;12.928;2022-12-20T21:28:34;26.42;;;12.85;;
20729;SDS011;10526;50.850;12.928;2022-12-20T21:32:56;25.20;;;12.20;;
20729;SDS011;10526;50.850;12.928;2022-12-20T21:37:18;27.15;;;12.02;;
20729;SDS011;10526;50.850;12.928;2022-12-20T21:41:41;25.33;;;12.15;;
20729;SDS011;10526;50.850;12.928;2022-12-20T21:46:03;25.63;;;11.98;;
20729;SDS011;10526;50.850;12.928;2022-12-20T21:50:26;26.48;;;12.32;;
20729;SDS011;10526;50.850;12.928;2022-12-20T21:54:47;28.13;;;12.70;;
20729;SDS011;10526;50.850;12.928;2022-12-20T21:59:09;27.70;;;12.48;;
20729;SDS011;10526;50.850;12.928;2022-12-20T22:03:31;24.52;;;11.32;;
20729;SDS011;10526;50.850;12.928;2022-12-20T22:07:54;25.08;;;11.90;;
20729;SDS011;10526;50.850;12.928;2022-12-20T22:12:16;24.30;;;12.63;;
20729;SDS011;10526;50.850;12.928;2022-12-20T22:16:37;22.83;;;11.40;;
20729;SDS011;10526;50.850;12.928;2022-12-20T22:21:03;24.08;;;11.48;;
20729;SDS011;10526;50.850;12.928;2022-12-20T22:25:26;24.27;;;12.38;;
20729;SDS011;10526;50.850;12.928;2022-12-20T22:29:48;26.00;;;11.70;;
20729;SDS011;10526;50.850;12.928;2022-12-20T22:34:10;24.35;;;11.32;;
20729;SDS011;10526;50.850;12.928;2022-12-20T22:38:32;22.63;;;11.10;;
20729;SDS011;10526;50.850;12.928;2022-12-20T22:42:55;22.67;;;9.75;;
20729;SDS011;10526;50.850;12.928;2022-12-20T22:47:16;23.85;;;11.52;;
20729;SDS011;10526;50.850;12.928;2022-12-20T22:51:38;23.20;;;10.65;;
20729;SDS011;10526;50.850;12.928;2022-12-20T22:56:00;27.05;;;11.82;;
20729;SDS011;10526;50.850;12.928;2022-12-20T23:00:24;28.60;;;11.52;;
20729;SDS011;10526;50.850;12.928;2022-12-20T23:04:46;24.90;;;11.48;;
20729;SDS011;10526;50.850;12.928;2022-12-20T23:09:07;26.15;;;11.55;;
20729;SDS011;10526;50.850;12.928;2022-12-20T23:13:29;23.77;;;11.48;;
20729;SDS011;10526;50.850;12.928;2022-12-20T23:18:10;25.23;;;11.15;;
20729;SDS011;10526;50.850;12.928;2022-12-20T23:22:32;25.73;;;12.02;;
20729;SDS011;10526;50.850;12.928;2022-12-20T23:27:03;21.85;;;10.10;;
20729;SDS011;10526;50.850;12.928;2022-12-20T23:31:25;24.33;;;9.82;;
20729;SDS011;10526;50.850;12.928;2022-12-20T23:35:54;23.95;;;10.55;;
20729;SDS011;10526;50.850;12.928;2022-12-20T23:40:17;19.27;;;8.85;;
20729;SDS011;10526;50.850;12.928;2022-12-20T23:44:39;21.38;;;9.57;;
20729;SDS011;10526;50.850;12.928;2022-12-20T23:49:01;20.88;;;9.57;;
20729;SDS011;10526;50.850;12.928;2022-12-20T23:53:23;21.08;;;9.23;;
20729;SDS011;10526;50.850;12.928;2022-12-20T23:57:46;20.70;;;8.77;;
